Nordic Odyssey — 3FIF4 — position and weather

sailwx.info

Track history (hours):
 
Tides and Currents Weather Stations Pressure Air Temp Water Temp Dewpoint Dewpoint Depression Visibility Wind Speed Wind Dir Waves Ship Positions

Nordic Odyssey

Last reported at 2018-Feb-20 22:25 UTC. Time now 2018-Feb-22 22:53 UTC.
Position N 36°31' W 000°35'.

Length 225 m; draft 13.9 m.

Type: Cargo ship. MMSI: 373428000.

Date/timePositionNaut miles runAvg speedWind from/ knotsBaromVisibWave heightAir tempDewpointWater temp
2018-Feb-20 22:25N 36°31' W 000°35'1012.1
2018-Feb-20 21:38N 36°29' W 000°46'21712.9
2018-Feb-20 04:45N 36°01' W 005°13'414.6
2018-Feb-20 04:30N 35°60' W 005°17'714.2
2018-Feb-20 04:00N 35°58' W 005°25'21911.2
2018-Feb-19 08:23N 37°17' W 009°40'411.9
2018-Feb-19 08:00N 37°21' W 009°42'612.0
2018-Feb-19 07:30N 37°27' W 009°44'612.2
2018-Feb-19 07:00N 37°33' W 009°46'612.3
2018-Feb-19 06:30N 37°39' W 009°48'612.3
2018-Feb-19 06:00N 37°45' W 009°50'612.4
2018-Feb-19 05:30N 37°51' W 009°51'612.2
2018-Feb-19 05:00N 37°57' W 009°53'612.3
2018-Feb-19 04:30N 38°03' W 009°55'612.4
2018-Feb-19 04:00N 38°09' W 009°57'612.5
2018-Feb-19 03:30N 38°15' W 009°59'612.6
2018-Feb-19 03:00N 38°21' W 010°01'612.7
2018-Feb-19 02:30N 38°27' W 010°02'612.7
2018-Feb-19 02:00N 38°34' W 010°04'612.4
2018-Feb-19 01:30N 38°40' W 010°05'612.2
2018-Feb-19 01:00N 38°46' W 010°06'612.2
2018-Feb-19 00:30N 38°52' W 010°06'612.3
2018-Feb-19 00:00N 38°58' W 010°06'612.4
2018-Feb-18 23:30N 39°04' W 010°06'612.6
2018-Feb-18 23:00N 39°10' W 010°06'612.4
2018-Feb-18 22:30N 39°17' W 010°06'612.1
2018-Feb-18 22:00N 39°23' W 010°06'912.1
2018-Feb-18 21:16N 39°32' W 010°06'412.2
2018-Feb-18 20:57N 39°35' W 010°06'812.2
2018-Feb-18 20:19N 39°43' W 010°06'412.2
2018-Feb-18 20:00N 39°47' W 010°06'56111.1
2018-Feb-16 17:32N 48°40' W 005°58'4 8.8
2018-Feb-16 17:07N 48°43' W 005°55'8 8.3
2018-Feb-16 16:09N 48°50' W 005°49'1 8.3
2018-Feb-16 16:00N 48°51' W 005°48'5 8.0
2018-Feb-16 15:25N 48°55' W 005°44'4 7.9
2018-Feb-16 14:52N 48°57' W 005°38'4 8.2
2018-Feb-16 14:21N 48°59' W 005°33'3 8.5
2018-Feb-16 13:58N 49°01' W 005°29'7 9.2
2018-Feb-16 13:10N 49°05' W 005°19'3 9.8
2018-Feb-16 12:50N 49°06' W 005°15'3 9.8
2018-Feb-16 12:30N 49°08' W 005°10'79 9.6
2018-Feb-16 04:18N 49°49' W 003°27'3 9.6
2018-Feb-16 04:00N 49°50' W 003°23'510.0
2018-Feb-16 03:30N 49°53' W 003°16'510.9
2018-Feb-16 03:00N 49°55' W 003°09'611.2
2018-Feb-16 02:30N 49°58' W 003°01'612.0
2018-Feb-16 02:00N 49°59' W 002°52'612.4
2018-Feb-16 01:30N 50°01' W 002°43'712.4
2018-Feb-16 00:59N 50°03' W 002°33'2211.0
2018-Feb-15 22:59N 50°09' W 002°00'4 9.0
2018-Feb-15 22:30N 50°10' W 001°54'4 8.2
2018-Feb-15 22:00N 50°11' W 001°47'4 7.6
2018-Feb-15 21:30N 50°12' W 001°42'4 7.1
2018-Feb-15 21:00N 50°13' W 001°36'3 6.8
2018-Feb-15 20:30N 50°14' W 001°31'3 6.6
2018-Feb-15 20:00N 50°15' W 001°26'3 6.6
2018-Feb-15 19:30N 50°16' W 001°21'4 7.1
2018-Feb-15 19:00N 50°17' W 001°16'4 7.6
2018-Feb-15 18:30N 50°18' W 001°10'3110.7
2018-Feb-15 15:35N 50°26' W 000°23'112.0
2018-Feb-15 15:29N 50°26' W 000°21'612.1
2018-Feb-15 15:00N 50°28' W 000°13'612.9
2018-Feb-15 14:30N 50°30' W 000°03'612.0
2018-Feb-15 14:00N 50°31' E 000°06'611.3
2018-Feb-15 13:30N 50°33' E 000°15'510.8
2018-Feb-15 13:00N 50°34' E 000°23'510.3
2018-Feb-15 12:30N 50°36' E 000°31'5 9.5
2018-Feb-15 12:00N 50°38' E 000°37'5 9.3
2018-Feb-15 11:30N 50°41' E 000°43'4 9.0
2018-Feb-15 11:00N 50°44' E 000°48'4 8.7
2018-Feb-15 10:30N 50°47' E 000°54'4 8.6
2018-Feb-15 10:00N 50°49' E 000°59'4 8.7
2018-Feb-15 09:30N 50°52' E 001°04'5 9.2
2018-Feb-15 09:00N 50°55' E 001°10'5 9.9
2018-Feb-15 08:29N 50°58' E 001°16'510.6
2018-Feb-15 08:00N 51°01' E 001°22'611.3
2018-Feb-15 07:30N 51°05' E 001°29'611.4
2018-Feb-15 07:00N 51°09' E 001°36'611.1
2018-Feb-15 06:30N 51°12' E 001°43'510.7
2018-Feb-15 06:00N 51°17' E 001°48'510.1
2018-Feb-15 05:30N 51°21' E 001°51'5 9.3
2018-Feb-15 05:00N 51°25' E 001°55'4 8.7
2018-Feb-15 04:30N 51°29' E 001°59'4 8.7
2018-Feb-15 04:00N 51°32' E 002°04'4 8.5
2018-Feb-15 03:30N 51°35' E 002°08'4 8.3
2018-Feb-15 03:00N 51°38' E 002°13'4 8.0
2018-Feb-15 02:30N 51°41' E 002°17'4 7.6
2018-Feb-15 01:59N 51°44' E 002°21'4 7.4
2018-Feb-15 01:30N 51°47' E 002°25'4 7.1
2018-Feb-15 00:59N 51°50' E 002°29'176 8.6
2018-Feb-14 04:27N 54°25' E 004°47'5 9.9
2018-Feb-14 03:59N 54°28' E 004°52'510.0
2018-Feb-14 03:30N 54°32' E 004°56'510.1
2018-Feb-14 02:59N 54°37' E 005°01'258 9.3
2018-Feb-12 23:16N 57°49' E 010°10'3 8.8
2018-Feb-12 22:59N 57°49' E 010°15'4 8.7
2018-Feb-12 22:30N 57°49' E 010°22'4 8.7
2018-Feb-12 22:00N 57°49' E 010°30'4 7.7
2018-Feb-12 21:30N 57°49' E 010°38'4 7.3
2018-Feb-12 21:00N 57°49' E 010°44'4 7.6
2018-Feb-12 20:30N 57°47' E 010°51'3 5.3
2018-Feb-12 20:00N 57°44' E 010°52'4 8.3
2018-Feb-12 19:30N 57°42' E 010°58'5 9.7
2018-Feb-12 19:00N 57°38' E 011°05'510.0
2018-Feb-12 18:30N 57°35' E 011°12'510.2
2018-Feb-12 18:00N 57°32' E 011°19'5 9.9
2018-Feb-12 17:30N 57°28' E 011°26'5 9.8
2018-Feb-12 17:00N 57°24' E 011°28'5 9.7
2018-Feb-12 16:30N 57°19' E 011°31'5 9.8
2018-Feb-12 16:00N 57°14' E 011°35'5 9.7
2018-Feb-12 15:30N 57°10' E 011°38'5 9.7
2018-Feb-12 15:00N 57°05' E 011°41'510.0
2018-Feb-12 14:30N 57°00' E 011°44'101 9.2
2018-Feb-12 03:26N 55°22' E 011°02'512.0
2018-Feb-12 03:00N 55°17' E 011°04'510.5
2018-Feb-12 02:30N 55°12' E 011°04'511.0
2018-Feb-12 02:00N 55°07' E 010°59'611.9
2018-Feb-12 01:30N 55°01' E 010°60'612.2
2018-Feb-12 01:00N 54°56' E 010°53'713.1
2018-Feb-12 00:30N 54°50' E 010°50'612.3
2018-Feb-12 00:00N 54°44' E 010°47'5 9.7
2018-Feb-11 23:30N 54°40' E 010°51'510.5
2018-Feb-11 23:00N 54°36' E 010°58'5 9.8
2018-Feb-11 22:30N 54°36' E 011°06'510.7
2018-Feb-11 22:00N 54°35' E 011°15'510.8
2018-Feb-11 21:30N 54°32' E 011°23'510.5
2018-Feb-11 21:00N 54°30' E 011°32'510.4
2018-Feb-11 20:30N 54°28' E 011°40'510.1
2018-Feb-11 20:00N 54°26' E 011°48'510.1
2018-Feb-11 19:30N 54°26' E 011°57'510.3
2018-Feb-11 19:00N 54°26' E 012°06'4 9.0
2018-Feb-11 18:30N 54°29' E 012°12'510.3
2018-Feb-11 18:00N 54°33' E 012°15'4 7.6
2018-Feb-11 17:30N 54°37' E 012°18'4610.1
2018-Feb-11 12:59N 54°57' E 013°29'1110.1
2018-Feb-11 11:53N 55°01' E 013°47'610.4
2018-Feb-11 11:18N 55°03' E 013°57'8 9.6
2018-Feb-11 10:26N 55°08' E 014°09'410.0
2018-Feb-11 10:00N 55°11' E 014°14'510.2
2018-Feb-11 09:29N 55°15' E 014°19'510.3
2018-Feb-11 09:00N 55°19' E 014°25'510.3
2018-Feb-11 08:30N 55°23' E 014°31'510.2
2018-Feb-11 07:59N 55°27' E 014°37'510.6
2018-Feb-11 07:30N 55°29' E 014°45'610.6
2018-Feb-11 06:57N 55°32' E 014°54'510.6
2018-Feb-11 06:29N 55°34' E 015°02'510.7
2018-Feb-11 06:00N 55°37' E 015°10'510.7
2018-Feb-11 05:30N 55°39' E 015°18'510.7
2018-Feb-11 05:00N 55°42' E 015°27'510.7
2018-Feb-11 04:30N 55°45' E 015°35'510.9
2018-Feb-11 04:00N 55°48' E 015°43'510.9
2018-Feb-11 03:30N 55°51' E 015°51'510.8
2018-Feb-11 03:00N 55°53' E 015°59'511.0
2018-Feb-11 02:30N 55°56' E 016°08'611.0
2018-Feb-11 02:00N 55°59' E 016°16'510.8
2018-Feb-11 01:30N 56°02' E 016°24'510.9
2018-Feb-11 01:00N 56°05' E 016°33'511.0
2018-Feb-11 00:30N 56°08' E 016°41'510.4
2018-Feb-11 00:00N 56°12' E 016°46'510.8
2018-Feb-10 23:30N 56°17' E 016°50'710.8
2018-Feb-10 22:54N 56°23' E 016°54'  
Track history (hours):
 
Tides and Currents Weather Stations Pressure Air Temp Water Temp Dewpoint Dewpoint Depression Visibility Wind Speed Wind Dir Waves Ship Positions

Nordic Odyssey

Last reported at 2018-Feb-20 22:25 UTC. Time now 2018-Feb-22 22:53 UTC.
Position N 36°31' W 000°35'.

Length 225 m; draft 13.9 m.

Type: Cargo ship. MMSI: 373428000.

Date/timePositionNaut miles runAvg speedWind from/ knotsBaromVisibWave heightAir tempDewpointWater temp
2018-Feb-20 22:25N 36°31' W 000°35'1012.1
2018-Feb-20 21:38N 36°29' W 000°46'21712.9
2018-Feb-20 04:45N 36°01' W 005°13'414.6
2018-Feb-20 04:30N 35°60' W 005°17'714.2
2018-Feb-20 04:00N 35°58' W 005°25'21911.2
2018-Feb-19 08:23N 37°17' W 009°40'411.9
2018-Feb-19 08:00N 37°21' W 009°42'612.0
2018-Feb-19 07:30N 37°27' W 009°44'612.2
2018-Feb-19 07:00N 37°33' W 009°46'612.3
2018-Feb-19 06:30N 37°39' W 009°48'612.3
2018-Feb-19 06:00N 37°45' W 009°50'612.4
2018-Feb-19 05:30N 37°51' W 009°51'612.2
2018-Feb-19 05:00N 37°57' W 009°53'612.3
2018-Feb-19 04:30N 38°03' W 009°55'612.4
2018-Feb-19 04:00N 38°09' W 009°57'612.5
2018-Feb-19 03:30N 38°15' W 009°59'612.6
2018-Feb-19 03:00N 38°21' W 010°01'612.7
2018-Feb-19 02:30N 38°27' W 010°02'612.7
2018-Feb-19 02:00N 38°34' W 010°04'612.4
2018-Feb-19 01:30N 38°40' W 010°05'612.2
2018-Feb-19 01:00N 38°46' W 010°06'612.2
2018-Feb-19 00:30N 38°52' W 010°06'612.3
2018-Feb-19 00:00N 38°58' W 010°06'612.4
2018-Feb-18 23:30N 39°04' W 010°06'612.6
2018-Feb-18 23:00N 39°10' W 010°06'612.4
2018-Feb-18 22:30N 39°17' W 010°06'612.1
2018-Feb-18 22:00N 39°23' W 010°06'912.1
2018-Feb-18 21:16N 39°32' W 010°06'412.2
2018-Feb-18 20:57N 39°35' W 010°06'812.2
2018-Feb-18 20:19N 39°43' W 010°06'412.2
2018-Feb-18 20:00N 39°47' W 010°06'56111.1
2018-Feb-16 17:32N 48°40' W 005°58'4 8.8
2018-Feb-16 17:07N 48°43' W 005°55'8 8.3
2018-Feb-16 16:09N 48°50' W 005°49'1 8.3
2018-Feb-16 16:00N 48°51' W 005°48'5 8.0
2018-Feb-16 15:25N 48°55' W 005°44'4 7.9
2018-Feb-16 14:52N 48°57' W 005°38'4 8.2
2018-Feb-16 14:21N 48°59' W 005°33'3 8.5
2018-Feb-16 13:58N 49°01' W 005°29'7 9.2
2018-Feb-16 13:10N 49°05' W 005°19'3 9.8
2018-Feb-16 12:50N 49°06' W 005°15'3 9.8
2018-Feb-16 12:30N 49°08' W 005°10'79 9.6
2018-Feb-16 04:18N 49°49' W 003°27'3 9.6
2018-Feb-16 04:00N 49°50' W 003°23'510.0
2018-Feb-16 03:30N 49°53' W 003°16'510.9
2018-Feb-16 03:00N 49°55' W 003°09'611.2
2018-Feb-16 02:30N 49°58' W 003°01'612.0
2018-Feb-16 02:00N 49°59' W 002°52'612.4
2018-Feb-16 01:30N 50°01' W 002°43'712.4
2018-Feb-16 00:59N 50°03' W 002°33'2211.0
2018-Feb-15 22:59N 50°09' W 002°00'4 9.0
2018-Feb-15 22:30N 50°10' W 001°54'4 8.2
2018-Feb-15 22:00N 50°11' W 001°47'4 7.6
2018-Feb-15 21:30N 50°12' W 001°42'4 7.1
2018-Feb-15 21:00N 50°13' W 001°36'3 6.8
2018-Feb-15 20:30N 50°14' W 001°31'3 6.6
2018-Feb-15 20:00N 50°15' W 001°26'3 6.6
2018-Feb-15 19:30N 50°16' W 001°21'4 7.1
2018-Feb-15 19:00N 50°17' W 001°16'4 7.6
2018-Feb-15 18:30N 50°18' W 001°10'3110.7
2018-Feb-15 15:35N 50°26' W 000°23'112.0
2018-Feb-15 15:29N 50°26' W 000°21'612.1
2018-Feb-15 15:00N 50°28' W 000°13'612.9
2018-Feb-15 14:30N 50°30' W 000°03'612.0
2018-Feb-15 14:00N 50°31' E 000°06'611.3
2018-Feb-15 13:30N 50°33' E 000°15'510.8
2018-Feb-15 13:00N 50°34' E 000°23'510.3
2018-Feb-15 12:30N 50°36' E 000°31'5 9.5
2018-Feb-15 12:00N 50°38' E 000°37'5 9.3
2018-Feb-15 11:30N 50°41' E 000°43'4 9.0
2018-Feb-15 11:00N 50°44' E 000°48'4 8.7
2018-Feb-15 10:30N 50°47' E 000°54'4 8.6
2018-Feb-15 10:00N 50°49' E 000°59'4 8.7
2018-Feb-15 09:30N 50°52' E 001°04'5 9.2
2018-Feb-15 09:00N 50°55' E 001°10'5 9.9
2018-Feb-15 08:29N 50°58' E 001°16'510.6
2018-Feb-15 08:00N 51°01' E 001°22'611.3
2018-Feb-15 07:30N 51°05' E 001°29'611.4
2018-Feb-15 07:00N 51°09' E 001°36'611.1
2018-Feb-15 06:30N 51°12' E 001°43'510.7
2018-Feb-15 06:00N 51°17' E 001°48'510.1
2018-Feb-15 05:30N 51°21' E 001°51'5 9.3
2018-Feb-15 05:00N 51°25' E 001°55'4 8.7
2018-Feb-15 04:30N 51°29' E 001°59'4 8.7
2018-Feb-15 04:00N 51°32' E 002°04'4 8.5
2018-Feb-15 03:30N 51°35' E 002°08'4 8.3
2018-Feb-15 03:00N 51°38' E 002°13'4 8.0
2018-Feb-15 02:30N 51°41' E 002°17'4 7.6
2018-Feb-15 01:59N 51°44' E 002°21'4 7.4
2018-Feb-15 01:30N 51°47' E 002°25'4 7.1
2018-Feb-15 00:59N 51°50' E 002°29'176 8.6
2018-Feb-14 04:27N 54°25' E 004°47'5 9.9
2018-Feb-14 03:59N 54°28' E 004°52'510.0
2018-Feb-14 03:30N 54°32' E 004°56'510.1
2018-Feb-14 02:59N 54°37' E 005°01'258 9.3
2018-Feb-12 23:16N 57°49' E 010°10'3 8.8
2018-Feb-12 22:59N 57°49' E 010°15'4 8.7
2018-Feb-12 22:30N 57°49' E 010°22'4 8.7
2018-Feb-12 22:00N 57°49' E 010°30'4 7.7
2018-Feb-12 21:30N 57°49' E 010°38'4 7.3
2018-Feb-12 21:00N 57°49' E 010°44'4 7.6
2018-Feb-12 20:30N 57°47' E 010°51'3 5.3
2018-Feb-12 20:00N 57°44' E 010°52'4 8.3
2018-Feb-12 19:30N 57°42' E 010°58'5 9.7
2018-Feb-12 19:00N 57°38' E 011°05'510.0
2018-Feb-12 18:30N 57°35' E 011°12'510.2
2018-Feb-12 18:00N 57°32' E 011°19'5 9.9
2018-Feb-12 17:30N 57°28' E 011°26'5 9.8
2018-Feb-12 17:00N 57°24' E 011°28'5 9.7
2018-Feb-12 16:30N 57°19' E 011°31'5 9.8
2018-Feb-12 16:00N 57°14' E 011°35'5 9.7
2018-Feb-12 15:30N 57°10' E 011°38'5 9.7
2018-Feb-12 15:00N 57°05' E 011°41'510.0
2018-Feb-12 14:30N 57°00' E 011°44'101 9.2
2018-Feb-12 03:26N 55°22' E 011°02'512.0
2018-Feb-12 03:00N 55°17' E 011°04'510.5
2018-Feb-12 02:30N 55°12' E 011°04'511.0
2018-Feb-12 02:00N 55°07' E 010°59'611.9
2018-Feb-12 01:30N 55°01' E 010°60'612.2
2018-Feb-12 01:00N 54°56' E 010°53'713.1
2018-Feb-12 00:30N 54°50' E 010°50'612.3
2018-Feb-12 00:00N 54°44' E 010°47'5 9.7
2018-Feb-11 23:30N 54°40' E 010°51'510.5
2018-Feb-11 23:00N 54°36' E 010°58'5 9.8
2018-Feb-11 22:30N 54°36' E 011°06'510.7
2018-Feb-11 22:00N 54°35' E 011°15'510.8
2018-Feb-11 21:30N 54°32' E 011°23'510.5
2018-Feb-11 21:00N 54°30' E 011°32'510.4
2018-Feb-11 20:30N 54°28' E 011°40'510.1
2018-Feb-11 20:00N 54°26' E 011°48'510.1
2018-Feb-11 19:30N 54°26' E 011°57'510.3
2018-Feb-11 19:00N 54°26' E 012°06'4 9.0
2018-Feb-11 18:30N 54°29' E 012°12'510.3
2018-Feb-11 18:00N 54°33' E 012°15'4 7.6
2018-Feb-11 17:30N 54°37' E 012°18'4610.1
2018-Feb-11 12:59N 54°57' E 013°29'1110.1
2018-Feb-11 11:53N 55°01' E 013°47'610.4
2018-Feb-11 11:18N 55°03' E 013°57'8 9.6
2018-Feb-11 10:26N 55°08' E 014°09'410.0
2018-Feb-11 10:00N 55°11' E 014°14'510.2
2018-Feb-11 09:29N 55°15' E 014°19'510.3
2018-Feb-11 09:00N 55°19' E 014°25'510.3
2018-Feb-11 08:30N 55°23' E 014°31'510.2
2018-Feb-11 07:59N 55°27' E 014°37'510.6
2018-Feb-11 07:30N 55°29' E 014°45'610.6
2018-Feb-11 06:57N 55°32' E 014°54'510.6
2018-Feb-11 06:29N 55°34' E 015°02'510.7
2018-Feb-11 06:00N 55°37' E 015°10'510.7
2018-Feb-11 05:30N 55°39' E 015°18'510.7
2018-Feb-11 05:00N 55°42' E 015°27'510.7
2018-Feb-11 04:30N 55°45' E 015°35'510.9
2018-Feb-11 04:00N 55°48' E 015°43'510.9
2018-Feb-11 03:30N 55°51' E 015°51'510.8
2018-Feb-11 03:00N 55°53' E 015°59'511.0
2018-Feb-11 02:30N 55°56' E 016°08'611.0
2018-Feb-11 02:00N 55°59' E 016°16'510.8
2018-Feb-11 01:30N 56°02' E 016°24'510.9
2018-Feb-11 01:00N 56°05' E 016°33'511.0
2018-Feb-11 00:30N 56°08' E 016°41'510.4
2018-Feb-11 00:00N 56°12' E 016°46'510.8
2018-Feb-10 23:30N 56°17' E 016°50'710.8
2018-Feb-10 22:54N 56°23' E 016°54'  

Dump ship's entire track history